Time;durP1;ratioP1;P1;durP2;ratioP2;P2;SDS_P1;SDS_P2;PMS_P1;PMS_P2;Temp;Humidity;BMP_temperature;BMP_pressure;BME280_temperature;BME280_humidity;BME280_pressure;Samples;Min_cycle;Max_cycle;Signal;HPM_P1;HPM_P2
2023/05/21 18:15:02;;;;;;;;;21.50;21.50;;;;;22.96;48.57;101114.06;5116319;27;45636;-51
2023/05/21 18:17:28;;;;;;;;;29.00;25.75;;;;;23.00;48.18;101104.56;5090827;27;45406;-52
2023/05/21 18:19:53;;;;;;;;;29.00;29.00;;;;;23.07;47.84;101110.31;5108986;27;45363;-52
2023/05/21 18:22:18;;;;;;;;;28.75;28.75;;;;;23.08;47.88;101113.91;5109614;27;45496;-52
2023/05/21 18:24:44;;;;;;;;;28.00;27.00;;;;;23.06;47.91;101115.91;5115584;27;59504;-53
2023/05/21 18:27:11;;;;;;;;;28.50;28.50;;;;;22.96;47.96;101099.53;5105107;27;45334;-55
2023/05/21 18:29:36;;;;;;;;;31.75;30.25;;;;;23.06;47.91;101122.25;5115921;27;45339;-51
2023/05/21 18:32:02;;;;;;;;;26.75;26.25;;;;;23.06;48.58;101133.19;5115331;27;46301;-53
2023/05/21 18:34:27;;;;;;;;;28.00;27.50;;;;;23.04;48.47;101121.56;5110204;27;46347;-52
2023/05/21 18:36:53;;;;;;;;;28.25;27.75;;;;;23.02;48.23;101132.63;5114401;27;45328;-53
2023/05/21 18:39:23;;;;;;;;;26.75;25.50;;;;;22.98;48.71;101122.97;5106177;27;45439;-52
2023/05/21 18:41:48;;;;;;;;;35.75;32.00;;;;;22.97;48.67;101129.44;5115234;27;46146;-54
2023/05/21 18:44:14;;;;;;;;;32.00;30.75;;;;;22.90;49.06;101127.41;5115762;27;45278;-53
2023/05/21 18:46:39;;;;;;;;;30.50;29.50;;;;;22.80;49.16;101127.38;5115281;27;45316;-53
2023/05/21 18:49:05;;;;;;;;;29.00;28.75;;;;;22.79;49.63;101139.34;5115155;27;50680;-53
2023/05/21 18:51:30;;;;;;;;;31.25;30.25;;;;;22.73;49.69;101139.84;5111634;27;45916;-53
2023/05/21 18:53:55;;;;;;;;;27.25;27.25;;;;;22.69;49.97;101135.69;5107846;27;46001;-54
2023/05/21 18:56:21;;;;;;;;;32.25;28.25;;;;;22.64;50.11;101136.06;5115334;27;45206;-53
2023/05/21 18:58:47;;;;;;;;;28.00;27.75;;;;;22.64;50.80;101159.81;5115673;27;45279;-53
2023/05/21 19:01:12;;;;;;;;;22.00;22.00;;;;;22.60;50.39;101161.97;5115167;27;45583;-56
2023/05/21 19:03:38;;;;;;;;;27.75;26.25;;;;;22.55;50.54;101153.28;5115086;27;46278;-57
2023/05/21 19:06:03;;;;;;;;;25.00;22.75;;;;;22.43;50.86;101148.06;5113684;27;45289;-54
2023/05/21 19:08:29;;;;;;;;;30.25;27.00;;;;;22.42;51.05;101168.19;5115813;27;45398;-56
2023/05/21 19:10:54;;;;;;;;;32.50;31.00;;;;;22.34;51.58;101163.41;5109818;27;45480;-54
2023/05/21 19:13:20;;;;;;;;;27.25;25.50;;;;;22.27;51.43;101162.25;5111145;27;48252;-56
2023/05/21 19:15:47;;;;;;;;;32.25;29.75;;;;;22.20;51.92;101163.78;5099391;27;45582;-55
2023/05/21 19:18:13;;;;;;;;;29.75;27.25;;;;;22.20;51.73;101167.34;5087222;27;45550;-54
2023/05/21 19:20:38;;;;;;;;;28.25;26.75;;;;;22.11;51.93;101164.59;5090476;27;45575;-54
2023/05/21 19:23:03;;;;;;;;;26.00;26.00;;;;;22.09;52.40;101167.44;5087464;27;46746;-56
2023/05/21 19:25:30;;;;;;;;;35.75;31.00;;;;;22.04;52.78;101166.09;5087646;27;45886;-53
2023/05/21 19:27:56;;;;;;;;;28.75;27.50;;;;;22.02;52.58;101166.25;5087572;27;45380;-54
2023/05/21 19:30:21;;;;;;;;;25.00;24.50;;;;;21.96;53.12;101169.47;5091879;27;45802;-53
2023/05/21 19:32:47;;;;;;;;;32.00;30.00;;;;;21.93;53.21;101174.34;5091711;27;45332;-56
2023/05/21 19:35:13;;;;;;;;;28.25;27.00;;;;;21.90;53.23;101175.47;5093334;27;45513;-53
2023/05/21 19:37:39;;;;;;;;;28.75;28.00;;;;;21.82;53.24;101173.41;5087410;27;46136;-54
2023/05/21 19:40:06;;;;;;;;;24.00;24.00;;;;;21.78;53.35;101173.78;5086908;27;45514;-57
2023/05/21 19:42:31;;;;;;;;;27.25;27.25;;;;;21.79;53.35;101176.38;5090502;27;45448;-54
2023/05/21 19:44:56;;;;;;;;;31.25;30.25;;;;;21.74;53.76;101177.78;5090803;27;45425;-56
2023/05/21 19:47:22;;;;;;;;;28.00;26.75;;;;;21.70;53.92;101179.91;5087667;27;45406;-53
2023/05/21 19:49:47;;;;;;;;;27.00;27.00;;;;;21.66;54.00;101180.31;5098067;27;45563;-53
2023/05/21 19:52:12;;;;;;;;;31.50;28.50;;;;;21.64;54.01;101185.03;5091602;27;53671;-55
2023/05/21 19:54:38;;;;;;;;;31.00;28.75;;;;;21.63;54.33;101186.00;5093909;27;51091;-52
2023/05/21 19:57:03;;;;;;;;;32.25;29.00;;;;;21.61;54.10;101191.59;5089483;27;49022;-55
2023/05/21 19:59:28;;;;;;;;;29.25;27.50;;;;;21.60;54.48;101189.91;5088397;27;45531;-53
2023/05/21 20:01:54;;;;;;;;;35.75;31.50;;;;;21.59;54.81;101203.66;5094282;27;61741;-54
2023/05/21 20:04:19;;;;;;;;;30.00;28.50;;;;;21.58;54.43;101199.19;5088920;27;45397;-55
2023/05/21 20:06:45;;;;;;;;;30.50;29.25;;;;;21.57;54.67;101198.31;5088638;27;45538;-56
2023/05/21 20:09:12;;;;;;;;;10.00;9.00;;;;;21.55;54.72;101200.31;5096249;27;45329;-55
2023/05/21 20:11:37;;;;;;;;;32.50;31.50;;;;;21.50;54.51;101205.31;5087443;27;46208;-57
2023/05/21 20:14:03;;;;;;;;;34.50;32.75;;;;;21.42;55.29;101199.63;5092987;27;45375;-53
2023/05/21 20:16:28;;;;;;;;;30.75;27.00;;;;;21.39;55.24;101210.78;5091332;27;45276;-55
2023/05/21 20:18:56;;;;;;;;;32.50;30.75;;;;;21.38;55.43;101214.50;5090692;27;45574;-56
2023/05/21 20:21:23;;;;;;;;;31.00;30.25;;;;;21.34;55.65;101205.72;5086724;27;46167;-58
2023/05/21 20:23:48;;;;;;;;;32.75;30.00;;;;;21.33;55.40;101216.75;5089971;27;45593;-57
2023/05/21 20:26:15;;;;;;;;;29.25;27.25;;;;;21.29;55.63;101212.53;5090680;27;45584;-55
2023/05/21 20:28:40;;;;;;;;;33.25;29.75;;;;;21.28;55.76;101219.84;5092935;27;45499;-58
2023/05/21 20:31:06;;;;;;;;;30.75;29.75;;;;;21.28;55.70;101219.84;5089044;27;46007;-56
2023/05/21 20:33:33;;;;;;;;;29.75;29.50;;;;;21.27;55.73;101231.75;5079382;28;54405;-56
2023/05/21 20:35:59;;;;;;;;;32.75;30.75;;;;;21.26;55.63;101229.19;5080395;27;45296;-58
2023/05/21 20:38:24;;;;;;;;;29.00;26.75;;;;;21.25;55.77;101235.63;5081370;27;45572;-57
2023/05/21 20:40:51;;;;;;;;;34.00;31.75;;;;;21.25;55.80;101230.16;5080091;27;45365;-57
2023/05/21 20:43:17;;;;;;;;;23.50;22.25;;;;;21.24;55.58;101242.06;5079937;27;45614;-58
2023/05/21 20:45:46;;;;;;;;;31.50;30.00;;;;;21.21;55.89;101228.69;5079509;27;45337;-57
2023/05/21 20:48:13;;;;;;;;;29.00;28.25;;;;;21.18;56.01;101229.78;5079715;27;45437;-59
2023/05/21 20:50:46;;;;;;;;;28.25;27.75;;;;;21.14;55.91;101226.44;5079689;27;45805;-57
2023/05/21 20:53:14;;;;;;;;;27.25;26.50;;;;;21.11;56.06;101228.53;5079856;27;45321;-58
2023/05/21 20:55:43;;;;;;;;;29.25;27.25;;;;;21.09;55.97;101227.81;5079514;27;45624;-58
2023/05/21 20:58:08;;;;;;;;;26.50;26.50;;;;;21.07;56.18;101222.47;5079791;27;45758;-57
2023/05/21 21:00:34;;;;;;;;;30.25;24.50;;;;;21.08;56.18;101234.25;5079557;27;46283;-55
2023/05/21 21:03:02;;;;;;;;;29.50;24.00;;;;;21.07;56.13;101233.38;5077877;28;56505;-57
2023/05/21 21:05:27;;;;;;;;;26.50;26.50;;;;;21.05;56.15;101231.78;5078743;27;45353;-57
2023/05/21 21:07:53;;;;;;;;;29.50;29.50;;;;;21.02;56.00;101230.16;5089032;27;45417;-58
2023/05/21 21:10:19;;;;;;;;;24.00;24.00;;;;;21.03;56.37;101231.03;5079625;27;47565;-58
2023/05/21 21:12:44;;;;;;;;;32.75;29.75;;;;;20.98;55.98;101231.41;5086399;27;45388;-57
2023/05/21 21:15:09;;;;;;;;;30.50;26.25;;;;;20.92;56.14;101221.03;5089862;27;45314;-58
2023/05/21 21:17:35;;;;;;;;;28.75;25.75;;;;;20.94;56.50;101226.31;5079349;27;45403;-58
2023/05/21 21:20:00;;;;;;;;;24.75;24.00;;;;;20.91;56.27;101229.31;5079328;27;45322;-57
2023/05/21 21:22:27;;;;;;;;;29.00;28.50;;;;;20.86;56.37;101228.81;5078696;27;45393;-67
2023/05/21 21:24:52;;;;;;;;;22.75;22.75;;;;;20.81;56.39;101237.38;5079881;27;45524;-65
2023/05/21 21:27:17;;;;;;;;;25.00;24.75;;;;;20.77;56.08;101244.91;5079233;27;46381;-65
2023/05/21 21:29:44;;;;;;;;;25.25;23.25;;;;;20.72;56.27;101224.47;5079597;27;46278;-64
2023/05/21 21:32:10;;;;;;;;;22.75;22.75;;;;;20.67;56.01;101232.16;5079376;27;45385;-65
2023/05/21 21:34:35;;;;;;;;;19.50;19.50;;;;;20.64;56.15;101233.28;5079407;27;45181;-66
2023/05/21 21:37:01;;;;;;;;;25.25;24.75;;;;;20.61;56.07;101238.97;5079129;27;45394;-65
2023/05/21 21:39:26;;;;;;;;;25.00;22.50;;;;;20.58;56.26;101238.34;5079345;27;45276;-65
2023/05/21 21:41:52;;;;;;;;;24.50;22.75;;;;;20.52;56.21;101227.94;5078853;28;58848;-65
2023/05/21 21:44:17;;;;;;;;;21.00;18.00;;;;;20.52;55.94;101238.81;5079456;27;45291;-66
2023/05/21 21:46:42;;;;;;;;;26.25;24.50;;;;;20.50;55.85;101238.09;5078941;27;54126;-65
2023/05/21 21:49:07;;;;;;;;;22.50;19.75;;;;;20.48;55.92;101242.78;5077760;28;48901;-64
2023/05/21 21:51:33;;;;;;;;;17.75;17.75;;;;;20.43;55.23;101240.41;5078668;28;58913;-65
2023/05/21 21:53:59;;;;;;;;;21.00;20.25;;;;;20.41;55.72;101233.38;5079343;27;45347;-66
2023/05/21 21:56:25;;;;;;;;;21.50;20.00;;;;;20.33;55.34;101232.06;5079200;27;45383;-65
2023/05/21 21:58:50;;;;;;;;;20.00;19.25;;;;;20.27;55.76;101234.41;5079118;27;46383;-66
2023/05/21 22:01:15;;;;;;;;;20.25;20.25;;;;;20.20;55.78;101228.59;5078851;28;47122;-65
2023/05/21 22:03:40;;;;;;;;;19.25;17.50;;;;;20.24;55.78;101232.81;5078918;27;45397;-65
2023/05/21 22:06:06;;;;;;;;;25.00;21.75;;;;;20.22;56.21;101234.78;5093942;27;45489;-64
2023/05/21 22:08:31;;;;;;;;;21.25;16.25;;;;;20.20;56.01;101235.88;5090153;27;45732;-64
2023/05/21 22:10:57;;;;;;;;;23.00;21.00;;;;;20.23;56.39;101246.56;5078821;27;47146;-64
2023/05/21 22:13:24;;;;;;;;;20.25;20.25;;;;;20.19;56.27;101248.63;5090996;27;45361;-65
2023/05/21 22:15:50;;;;;;;;;19.00;18.75;;;;;20.11;55.81;101236.59;5083151;27;45425;-65
2023/05/21 22:18:18;;;;;;;;;19.50;16.50;;;;;20.05;56.10;101242.53;5078365;27;45551;-66
2023/05/21 22:20:45;;;;;;;;;17.75;17.75;;;;;20.02;55.67;101241.78;5078450;27;45452;-66
2023/05/21 22:23:10;;;;;;;;;15.75;15.00;;;;;19.99;55.75;101247.44;5078760;27;45414;-65
2023/05/21 22:25:36;;;;;;;;;15.00;12.00;;;;;19.99;55.57;101235.69;5078324;27;45500;-66
2023/05/21 22:28:01;;;;;;;;;16.25;16.25;;;;;19.97;55.18;101240.41;5078619;28;45977;-65
2023/05/21 22:30:26;;;;;;;;;14.00;14.00;;;;;19.82;55.47;101215.22;5078737;28;45333;-65
2023/05/21 22:32:52;;;;;;;;;15.75;13.75;;;;;19.91;55.13;101235.41;5078872;27;45364;-65
2023/05/21 22:35:18;;;;;;;;;13.75;13.75;;;;;19.92;54.97;101243.47;5078242;27;45353;-64
2023/05/21 22:37:43;;;;;;;;;15.00;15.00;;;;;19.92;55.00;101242.59;5078577;27;45540;-65
2023/05/21 22:40:09;;;;;;;;;17.25;15.50;;;;;19.87;55.30;101229.38;5078437;27;45467;-66
2023/05/21 22:42:35;;;;;;;;;16.50;14.00;;;;;19.86;55.64;101237.63;5078894;27;45389;-65
2023/05/21 22:45:01;;;;;;;;;21.25;20.25;;;;;19.82;55.54;101231.53;5078300;27;46119;-65
2023/05/21 22:47:27;;;;;;;;;21.00;19.75;;;;;19.84;55.67;101248.63;5078273;27;45282;-65
2023/05/21 22:49:52;;;;;;;;;20.00;16.50;;;;;19.83;55.77;101244.16;5079216;27;45353;-65
2023/05/21 22:52:20;;;;;;;;;13.75;13.75;;;;;19.81;55.46;101245.31;5082244;28;45415;-65
2023/05/21 22:54:47;;;;;;;;;16.50;16.50;;;;;19.73;55.81;101234.13;5081733;27;45452;-65
2023/05/21 22:57:13;;;;;;;;;24.00;21.00;;;;;19.76;55.57;101252.91;5081733;27;46243;-64
2023/05/21 22:59:38;;;;;;;;;19.75;18.50;;;;;19.73;55.47;101255.91;5081586;27;45386;-64
